sensor_id;sensor_type;location;lat;lon;timestamp;pressure;altitude;pressure_sealevel;temperature;humidity
28079;BME280;15388;42.238;24.684;2022-10-16T00:00:29;100176.91;;;9.87;100.00
28079;BME280;15388;42.238;24.684;2022-10-16T00:02:55;100179.34;;;10.02;100.00
28079;BME280;15388;42.238;24.684;2022-10-16T00:05:20;100176.25;;;10.08;100.00
28079;BME280;15388;42.238;24.684;2022-10-16T00:07:46;100181.69;;;10.06;100.00
28079;BME280;15388;42.238;24.684;2022-10-16T00:10:11;100178.16;;;10.06;100.00
28079;BME280;15388;42.238;24.684;2022-10-16T00:12:36;100177.44;;;10.04;100.00
28079;BME280;15388;42.238;24.684;2022-10-16T00:15:02;100175.75;;;10.03;100.00
28079;BME280;15388;42.238;24.684;2022-10-16T00:17:27;100184.91;;;9.99;100.00
28079;BME280;15388;42.238;24.684;2022-10-16T00:19:52;100186.09;;;9.83;100.00
28079;BME280;15388;42.238;24.684;2022-10-16T00:22:18;100179.19;;;9.80;100.00
28079;BME280;15388;42.238;24.684;2022-10-16T00:24:43;100175.22;;;9.86;100.00
28079;BME280;15388;42.238;24.684;2022-10-16T00:27:08;100176.91;;;9.87;100.00
28079;BME280;15388;42.238;24.684;2022-10-16T00:29:34;100173.88;;;9.80;100.00
28079;BME280;15388;42.238;24.684;2022-10-16T00:31:59;100174.44;;;9.73;100.00
28079;BME280;15388;42.238;24.684;2022-10-16T00:34:24;100177.59;;;9.66;100.00
28079;BME280;15388;42.238;24.684;2022-10-16T00:36:50;100175.06;;;9.76;100.00
28079;BME280;15388;42.238;24.684;2022-10-16T00:39:15;100191.59;;;9.68;100.00
28079;BME280;15388;42.238;24.684;2022-10-16T00:41:40;100185.56;;;9.66;100.00
28079;BME280;15388;42.238;24.684;2022-10-16T00:46:50;100197.16;;;9.77;100.00
28079;BME280;15388;42.238;24.684;2022-10-16T00:49:16;100184.50;;;9.80;100.00
28079;BME280;15388;42.238;24.684;2022-10-16T00:51:46;100192.41;;;9.93;100.00
28079;BME280;15388;42.238;24.684;2022-10-16T00:54:16;100202.59;;;10.00;100.00
28079;BME280;15388;42.238;24.684;2022-10-16T00:56:43;100202.34;;;10.03;100.00
28079;BME280;15388;42.238;24.684;2022-10-16T00:59:20;100206.94;;;10.12;100.00
28079;BME280;15388;42.238;24.684;2022-10-16T01:01:47;100209.38;;;10.15;100.00
28079;BME280;15388;42.238;24.684;2022-10-16T01:04:12;100211.56;;;10.10;100.00
28079;BME280;15388;42.238;24.684;2022-10-16T01:09:26;100224.03;;;9.85;100.00
28079;BME280;15388;42.238;24.684;2022-10-16T01:17:23;100228.94;;;10.03;100.00
28079;BME280;15388;42.238;24.684;2022-10-16T01:22:16;100233.47;;;9.89;100.00
28079;BME280;15388;42.238;24.684;2022-10-16T01:24:46;100233.22;;;9.81;100.00
28079;BME280;15388;42.238;24.684;2022-10-16T01:34:48;100240.09;;;9.35;100.00
28079;BME280;15388;42.238;24.684;2022-10-16T01:37:16;100236.50;;;9.36;100.00
28079;BME280;15388;42.238;24.684;2022-10-16T01:39:45;100238.44;;;9.21;100.00
28079;BME280;15388;42.238;24.684;2022-10-16T01:42:13;100236.97;;;9.16;100.00
28079;BME280;15388;42.238;24.684;2022-10-16T01:44:40;100239.19;;;9.10;100.00
28079;BME280;15388;42.238;24.684;2022-10-16T01:47:07;100247.75;;;8.89;100.00
28079;BME280;15388;42.238;24.684;2022-10-16T01:49:35;100247.44;;;8.81;100.00
28079;BME280;15388;42.238;24.684;2022-10-16T01:52:02;100245.34;;;8.73;100.00
28079;BME280;15388;42.238;24.684;2022-10-16T01:54:30;100246.38;;;8.57;100.00
28079;BME280;15388;42.238;24.684;2022-10-16T01:56:57;100248.47;;;8.52;100.00
28079;BME280;15388;42.238;24.684;2022-10-16T01:59:24;100248.69;;;8.23;100.00
28079;BME280;15388;42.238;24.684;2022-10-16T02:01:51;100260.25;;;8.22;100.00
28079;BME280;15388;42.238;24.684;2022-10-16T02:05:01;100250.16;;;8.27;100.00
28079;BME280;15388;42.238;24.684;2022-10-16T02:07:06;100252.94;;;8.38;100.00
28079;BME280;15388;42.238;24.684;2022-10-16T02:09:33;100237.41;;;8.19;100.00
28079;BME280;15388;42.238;24.684;2022-10-16T02:11:59;100253.78;;;8.26;100.00
28079;BME280;15388;42.238;24.684;2022-10-16T02:14:28;100257.50;;;8.23;100.00
28079;BME280;15388;42.238;24.684;2022-10-16T02:16:54;100257.78;;;8.19;100.00
28079;BME280;15388;42.238;24.684;2022-10-16T02:19:19;100261.09;;;8.35;100.00
28079;BME280;15388;42.238;24.684;2022-10-16T02:29:08;100258.88;;;8.42;100.00
28079;BME280;15388;42.238;24.684;2022-10-16T02:31:36;100259.00;;;8.40;100.00
28079;BME280;15388;42.238;24.684;2022-10-16T02:34:03;100263.00;;;8.33;100.00
28079;BME280;15388;42.238;24.684;2022-10-16T02:36:30;100269.03;;;8.35;100.00
28079;BME280;15388;42.238;24.684;2022-10-16T02:38:57;100274.59;;;8.32;100.00
28079;BME280;15388;42.238;24.684;2022-10-16T02:41:24;100276.59;;;8.41;100.00
28079;BME280;15388;42.238;24.684;2022-10-16T02:43:49;100278.63;;;8.51;100.00
28079;BME280;15388;42.238;24.684;2022-10-16T02:46:15;100280.53;;;8.49;100.00
28079;BME280;15388;42.238;24.684;2022-10-16T02:48:42;100283.38;;;8.46;100.00
28079;BME280;15388;42.238;24.684;2022-10-16T02:51:07;100286.25;;;8.43;100.00
28079;BME280;15388;42.238;24.684;2022-10-16T02:53:32;100287.84;;;8.45;100.00
28079;BME280;15388;42.238;24.684;2022-10-16T02:55:58;100286.03;;;8.46;100.00
28079;BME280;15388;42.238;24.684;2022-10-16T02:58:23;100292.50;;;8.41;100.00
28079;BME280;15388;42.238;24.684;2022-10-16T03:00:48;100283.94;;;8.51;100.00
28079;BME280;15388;42.238;24.684;2022-10-16T03:03:13;100284.75;;;8.38;100.00
28079;BME280;15388;42.238;24.684;2022-10-16T03:05:39;100289.53;;;8.33;100.00
28079;BME280;15388;42.238;24.684;2022-10-16T03:08:04;100296.31;;;8.37;100.00
28079;BME280;15388;42.238;24.684;2022-10-16T03:10:30;100297.09;;;8.39;100.00
28079;BME280;15388;42.238;24.684;2022-10-16T03:12:55;100299.84;;;8.38;100.00
28079;BME280;15388;42.238;24.684;2022-10-16T03:15:20;100308.50;;;8.27;100.00
28079;BME280;15388;42.238;24.684;2022-10-16T03:17:45;100310.84;;;8.19;100.00
28079;BME280;15388;42.238;24.684;2022-10-16T03:20:11;100310.78;;;8.06;100.00
28079;BME280;15388;42.238;24.684;2022-10-16T03:22:36;100313.66;;;8.02;100.00
28079;BME280;15388;42.238;24.684;2022-10-16T03:25:02;100313.91;;;7.43;100.00
28079;BME280;15388;42.238;24.684;2022-10-16T03:27:27;100318.09;;;7.03;100.00
28079;BME280;15388;42.238;24.684;2022-10-16T03:29:52;100319.41;;;6.81;100.00
28079;BME280;15388;42.238;24.684;2022-10-16T03:32:18;100324.81;;;6.80;100.00
28079;BME280;15388;42.238;24.684;2022-10-16T03:34:45;100323.66;;;6.84;100.00
28079;BME280;15388;42.238;24.684;2022-10-16T03:37:10;100319.59;;;6.78;100.00
28079;BME280;15388;42.238;24.684;2022-10-16T03:39:35;100319.22;;;6.84;100.00
28079;BME280;15388;42.238;24.684;2022-10-16T03:42:01;100320.66;;;7.05;100.00
28079;BME280;15388;42.238;24.684;2022-10-16T03:44:26;100333.63;;;7.09;100.00
28079;BME280;15388;42.238;24.684;2022-10-16T03:46:51;100315.72;;;6.98;100.00
28079;BME280;15388;42.238;24.684;2022-10-16T03:49:16;100321.53;;;7.05;100.00
28079;BME280;15388;42.238;24.684;2022-10-16T03:51:42;100324.44;;;7.15;100.00
28079;BME280;15388;42.238;24.684;2022-10-16T03:54:07;100325.84;;;7.06;100.00
28079;BME280;15388;42.238;24.684;2022-10-16T03:56:33;100328.50;;;7.06;100.00
28079;BME280;15388;42.238;24.684;2022-10-16T03:58:58;100327.91;;;6.86;100.00
28079;BME280;15388;42.238;24.684;2022-10-16T04:01:23;100335.13;;;6.84;100.00
28079;BME280;15388;42.238;24.684;2022-10-16T04:03:48;100316.97;;;6.93;100.00
28079;BME280;15388;42.238;24.684;2022-10-16T04:06:14;100325.50;;;6.98;100.00
28079;BME280;15388;42.238;24.684;2022-10-16T04:08:41;100320.47;;;6.93;100.00
28079;BME280;15388;42.238;24.684;2022-10-16T04:11:07;100323.75;;;6.97;100.00
28079;BME280;15388;42.238;24.684;2022-10-16T04:13:32;100327.16;;;6.84;100.00
28079;BME280;15388;42.238;24.684;2022-10-16T04:15:57;100328.50;;;6.77;100.00
28079;BME280;15388;42.238;24.684;2022-10-16T04:18:23;100324.91;;;6.93;100.00
28079;BME280;15388;42.238;24.684;2022-10-16T04:20:48;100324.53;;;6.84;100.00
28079;BME280;15388;42.238;24.684;2022-10-16T04:23:13;100328.84;;;6.71;100.00
28079;BME280;15388;42.238;24.684;2022-10-16T04:25:39;100328.38;;;6.64;100.00
28079;BME280;15388;42.238;24.684;2022-10-16T04:28:04;100332.81;;;6.63;100.00
28079;BME280;15388;42.238;24.684;2022-10-16T04:30:30;100335.09;;;6.70;100.00
28079;BME280;15388;42.238;24.684;2022-10-16T04:32:55;100323.19;;;6.77;100.00
28079;BME280;15388;42.238;24.684;2022-10-16T04:35:21;100330.47;;;6.88;100.00
28079;BME280;15388;42.238;24.684;2022-10-16T04:37:46;100327.53;;;6.93;100.00
28079;BME280;15388;42.238;24.684;2022-10-16T04:40:12;100332.66;;;6.96;100.00
28079;BME280;15388;42.238;24.684;2022-10-16T04:42:37;100340.22;;;7.02;100.00
28079;BME280;15388;42.238;24.684;2022-10-16T04:45:03;100334.44;;;7.10;100.00
28079;BME280;15388;42.238;24.684;2022-10-16T04:47:29;100338.13;;;7.07;100.00
28079;BME280;15388;42.238;24.684;2022-10-16T04:49:54;100347.78;;;7.08;100.00
28079;BME280;15388;42.238;24.684;2022-10-16T04:52:19;100345.72;;;7.13;100.00
28079;BME280;15388;42.238;24.684;2022-10-16T04:54:46;100345.44;;;7.04;100.00
28079;BME280;15388;42.238;24.684;2022-10-16T04:57:12;100352.06;;;7.11;100.00
28079;BME280;15388;42.238;24.684;2022-10-16T04:59:37;100345.53;;;7.02;100.00
28079;BME280;15388;42.238;24.684;2022-10-16T05:02:02;100349.31;;;7.12;100.00
28079;BME280;15388;42.238;24.684;2022-10-16T05:04:28;100348.34;;;6.99;100.00
28079;BME280;15388;42.238;24.684;2022-10-16T05:06:53;100356.63;;;6.78;100.00
28079;BME280;15388;42.238;24.684;2022-10-16T05:09:19;100359.59;;;6.57;100.00
28079;BME280;15388;42.238;24.684;2022-10-16T05:11:44;100366.25;;;6.65;100.00
28079;BME280;15388;42.238;24.684;2022-10-16T05:14:09;100363.53;;;6.81;100.00
28079;BME280;15388;42.238;24.684;2022-10-16T05:16:35;100370.34;;;6.85;100.00
28079;BME280;15388;42.238;24.684;2022-10-16T05:19:00;100370.06;;;6.90;100.00
28079;BME280;15388;42.238;24.684;2022-10-16T05:21:25;100374.22;;;6.79;100.00
28079;BME280;15388;42.238;24.684;2022-10-16T05:23:52;100370.81;;;6.77;100.00
28079;BME280;15388;42.238;24.684;2022-10-16T05:26:17;100376.13;;;6.92;100.00
28079;BME280;15388;42.238;24.684;2022-10-16T05:28:43;100375.78;;;7.12;100.00
28079;BME280;15388;42.238;24.684;2022-10-16T05:31:08;100382.00;;;7.26;100.00
28079;BME280;15388;42.238;24.684;2022-10-16T05:33:34;100388.91;;;7.43;100.00
28079;BME280;15388;42.238;24.684;2022-10-16T05:36:03;100389.22;;;7.38;100.00
28079;BME280;15388;42.238;24.684;2022-10-16T05:38:28;100387.69;;;7.34;100.00
28079;BME280;15388;42.238;24.684;2022-10-16T05:40:53;100394.09;;;7.45;100.00
28079;BME280;15388;42.238;24.684;2022-10-16T05:43:19;100398.56;;;7.59;100.00
28079;BME280;15388;42.238;24.684;2022-10-16T05:45:44;100407.91;;;7.64;100.00
28079;BME280;15388;42.238;24.684;2022-10-16T05:48:18;100409.78;;;7.62;100.00
28079;BME280;15388;42.238;24.684;2022-10-16T05:50:43;100415.59;;;7.69;100.00
28079;BME280;15388;42.238;24.684;2022-10-16T05:53:09;100420.88;;;7.84;100.00
28079;BME280;15388;42.238;24.684;2022-10-16T05:55:34;100417.16;;;7.86;100.00
28079;BME280;15388;42.238;24.684;2022-10-16T05:57:59;100423.38;;;8.00;100.00
28079;BME280;15388;42.238;24.684;2022-10-16T06:00:25;100428.03;;;7.96;100.00
28079;BME280;15388;42.238;24.684;2022-10-16T06:02:50;100428.94;;;8.10;100.00
28079;BME280;15388;42.238;24.684;2022-10-16T06:05:15;100429.19;;;8.20;100.00
28079;BME280;15388;42.238;24.684;2022-10-16T06:07:41;100432.94;;;8.30;100.00
28079;BME280;15388;42.238;24.684;2022-10-16T06:10:06;100436.50;;;8.44;100.00
28079;BME280;15388;42.238;24.684;2022-10-16T06:12:32;100429.75;;;8.52;100.00
28079;BME280;15388;42.238;24.684;2022-10-16T06:14:57;100439.13;;;8.58;100.00
28079;BME280;15388;42.238;24.684;2022-10-16T06:17:22;100431.94;;;8.73;100.00
28079;BME280;15388;42.238;24.684;2022-10-16T06:19:48;100437.94;;;8.90;100.00
28079;BME280;15388;42.238;24.684;2022-10-16T06:22:13;100440.06;;;8.98;100.00
28079;BME280;15388;42.238;24.684;2022-10-16T06:24:38;100442.63;;;9.12;100.00
28079;BME280;15388;42.238;24.684;2022-10-16T06:27:04;100444.75;;;9.33;100.00
28079;BME280;15388;42.238;24.684;2022-10-16T06:29:29;100448.81;;;9.52;100.00
28079;BME280;15388;42.238;24.684;2022-10-16T06:31:55;100443.38;;;9.66;100.00
28079;BME280;15388;42.238;24.684;2022-10-16T06:34:20;100446.00;;;9.79;100.00
28079;BME280;15388;42.238;24.684;2022-10-16T06:36:45;100454.28;;;9.88;100.00
28079;BME280;15388;42.238;24.684;2022-10-16T06:39:11;100455.72;;;10.05;100.00
28079;BME280;15388;42.238;24.684;2022-10-16T06:41:36;100461.69;;;10.09;100.00
28079;BME280;15388;42.238;24.684;2022-10-16T06:44:04;100464.69;;;10.28;100.00
28079;BME280;15388;42.238;24.684;2022-10-16T06:46:30;100464.22;;;10.48;100.00
28079;BME280;15388;42.238;24.684;2022-10-16T06:48:55;100459.66;;;10.50;100.00
28079;BME280;15388;42.238;24.684;2022-10-16T06:51:21;100455.09;;;10.63;100.00
28079;BME280;15388;42.238;24.684;2022-10-16T06:53:48;100465.91;;;10.73;100.00
28079;BME280;15388;42.238;24.684;2022-10-16T06:58:40;100460.88;;;10.93;100.00
28079;BME280;15388;42.238;24.684;2022-10-16T07:01:05;100464.44;;;11.05;100.00
28079;BME280;15388;42.238;24.684;2022-10-16T07:03:31;100469.44;;;11.21;100.00
28079;BME280;15388;42.238;24.684;2022-10-16T07:05:57;100468.94;;;11.27;100.00
28079;BME280;15388;42.238;24.684;2022-10-16T07:08:26;100476.22;;;11.25;100.00
28079;BME280;15388;42.238;24.684;2022-10-16T07:10:57;100470.09;;;11.48;100.00
28079;BME280;15388;42.238;24.684;2022-10-16T07:13:23;100479.78;;;11.71;100.00
28079;BME280;15388;42.238;24.684;2022-10-16T07:15:48;100480.28;;;11.88;100.00
28079;BME280;15388;42.238;24.684;2022-10-16T07:18:13;100481.50;;;12.07;100.00
28079;BME280;15388;42.238;24.684;2022-10-16T07:20:39;100476.59;;;12.23;100.00
28079;BME280;15388;42.238;24.684;2022-10-16T07:23:04;100481.16;;;12.44;100.00
28079;BME280;15388;42.238;24.684;2022-10-16T07:25:29;100480.06;;;12.58;100.00
28079;BME280;15388;42.238;24.684;2022-10-16T07:27:55;100477.91;;;12.73;100.00
28079;BME280;15388;42.238;24.684;2022-10-16T07:30:21;100478.59;;;12.87;100.00
28079;BME280;15388;42.238;24.684;2022-10-16T07:32:47;100480.69;;;13.05;100.00
28079;BME280;15388;42.238;24.684;2022-10-16T07:35:12;100476.56;;;13.22;100.00
28079;BME280;15388;42.238;24.684;2022-10-16T07:37:37;100470.75;;;13.38;100.00
28079;BME280;15388;42.238;24.684;2022-10-16T07:40:03;100478.06;;;13.57;100.00
28079;BME280;15388;42.238;24.684;2022-10-16T07:42:28;100474.38;;;13.80;100.00
28079;BME280;15388;42.238;24.684;2022-10-16T07:44:54;100474.16;;;14.03;100.00
28079;BME280;15388;42.238;24.684;2022-10-16T07:47:19;100475.59;;;14.26;100.00
28079;BME280;15388;42.238;24.684;2022-10-16T07:49:45;100485.22;;;14.39;100.00
28079;BME280;15388;42.238;24.684;2022-10-16T07:52:11;100479.88;;;14.39;100.00
28079;BME280;15388;42.238;24.684;2022-10-16T07:54:36;100479.66;;;14.11;100.00
28079;BME280;15388;42.238;24.684;2022-10-16T07:57:01;100478.69;;;14.12;100.00
28079;BME280;15388;42.238;24.684;2022-10-16T07:59:27;100483.63;;;14.17;100.00
28079;BME280;15388;42.238;24.684;2022-10-16T08:01:52;100476.75;;;14.24;100.00
28079;BME280;15388;42.238;24.684;2022-10-16T08:04:17;100476.53;;;14.47;100.00
28079;BME280;15388;42.238;24.684;2022-10-16T08:06:43;100471.56;;;14.72;100.00
28079;BME280;15388;42.238;24.684;2022-10-16T08:09:08;100475.00;;;15.03;100.00
28079;BME280;15388;42.238;24.684;2022-10-16T08:11:34;100466.91;;;15.23;100.00
28079;BME280;15388;42.238;24.684;2022-10-16T08:13:59;100469.41;;;15.45;86.47
28079;BME280;15388;42.238;24.684;2022-10-16T08:16:25;100477.81;;;15.60;85.57
28079;BME280;15388;42.238;24.684;2022-10-16T08:18:50;100476.41;;;15.56;84.43
28079;BME280;15388;42.238;24.684;2022-10-16T08:21:17;100477.28;;;15.56;84.80
28079;BME280;15388;42.238;24.684;2022-10-16T08:23:42;100481.44;;;15.69;84.00
28079;BME280;15388;42.238;24.684;2022-10-16T08:26:09;100481.34;;;15.60;82.35
28079;BME280;15388;42.238;24.684;2022-10-16T08:28:35;100476.94;;;15.69;83.06
28079;BME280;15388;42.238;24.684;2022-10-16T08:31:04;100473.06;;;15.82;80.07
28079;BME280;15388;42.238;24.684;2022-10-16T08:33:30;100466.41;;;15.86;82.10
28079;BME280;15388;42.238;24.684;2022-10-16T08:35:55;100484.44;;;16.03;81.35
28079;BME280;15388;42.238;24.684;2022-10-16T08:38:21;100481.50;;;16.25;79.73
28079;BME280;15388;42.238;24.684;2022-10-16T08:40:46;100476.34;;;16.32;78.09
28079;BME280;15388;42.238;24.684;2022-10-16T08:48:34;100470.38;;;16.74;76.55
28079;BME280;15388;42.238;24.684;2022-10-16T08:51:01;100476.53;;;16.85;74.28
28079;BME280;15388;42.238;24.684;2022-10-16T08:53:28;100471.56;;;16.98;72.73
28079;BME280;15388;42.238;24.684;2022-10-16T08:55:55;100463.69;;;17.15;73.33
28079;BME280;15388;42.238;24.684;2022-10-16T08:58:21;100467.06;;;17.17;71.36
28079;BME280;15388;42.238;24.684;2022-10-16T09:00:48;100466.91;;;17.18;70.65
28079;BME280;15388;42.238;24.684;2022-10-16T09:06:40;100469.97;;;17.50;69.55
28079;BME280;15388;42.238;24.684;2022-10-16T09:13:51;100460.03;;;17.86;64.02
28079;BME280;15388;42.238;24.684;2022-10-16T09:19:19;100466.53;;;18.18;64.83
28079;BME280;15388;42.238;24.684;2022-10-16T09:21:47;100467.09;;;18.30;63.82
28079;BME280;15388;42.238;24.684;2022-10-16T09:24:14;100463.72;;;18.36;63.37
28079;BME280;15388;42.238;24.684;2022-10-16T09:26:40;100467.94;;;18.22;60.29
28079;BME280;15388;42.238;24.684;2022-10-16T09:29:06;100457.97;;;18.23;61.99
28079;BME280;15388;42.238;24.684;2022-10-16T09:31:31;100454.13;;;18.33;61.44
28079;BME280;15388;42.238;24.684;2022-10-16T09:34:00;100462.25;;;18.58;60.31
28079;BME280;15388;42.238;24.684;2022-10-16T09:36:31;100460.88;;;18.38;59.95
28079;BME280;15388;42.238;24.684;2022-10-16T09:39:06;100449.78;;;18.74;59.15
28079;BME280;15388;42.238;24.684;2022-10-16T09:41:34;100456.06;;;19.08;59.89
28079;BME280;15388;42.238;24.684;2022-10-16T09:44:00;100453.47;;;19.23;58.06
28079;BME280;15388;42.238;24.684;2022-10-16T09:46:34;100444.06;;;19.02;56.49
28079;BME280;15388;42.238;24.684;2022-10-16T09:49:01;100438.16;;;18.99;56.93
28079;BME280;15388;42.238;24.684;2022-10-16T09:51:27;100437.66;;;18.70;56.70
28079;BME280;15388;42.238;24.684;2022-10-16T09:53:54;100433.94;;;18.38;56.45
28079;BME280;15388;42.238;24.684;2022-10-16T09:56:24;100442.38;;;18.68;57.48
28079;BME280;15388;42.238;24.684;2022-10-16T09:58:50;100438.31;;;18.97;59.45
28079;BME280;15388;42.238;24.684;2022-10-16T10:01:16;100428.84;;;19.34;57.29
28079;BME280;15388;42.238;24.684;2022-10-16T10:03:42;100426.78;;;19.53;56.26
28079;BME280;15388;42.238;24.684;2022-10-16T10:06:28;100420.31;;;19.63;54.19
28079;BME280;15388;42.238;24.684;2022-10-16T10:08:55;100418.06;;;19.75;54.97
28079;BME280;15388;42.238;24.684;2022-10-16T10:17:16;100406.59;;;20.13;54.76
28079;BME280;15388;42.238;24.684;2022-10-16T10:19:47;100403.59;;;20.54;53.70
28079;BME280;15388;42.238;24.684;2022-10-16T10:22:58;100405.50;;;20.69;51.82
28079;BME280;15388;42.238;24.684;2022-10-16T10:27:26;100393.06;;;20.59;50.40
28079;BME280;15388;42.238;24.684;2022-10-16T10:39:55;100380.41;;;20.75;49.75
28079;BME280;15388;42.238;24.684;2022-10-16T10:45:18;100378.88;;;20.57;47.15
28079;BME280;15388;42.238;24.684;2022-10-16T10:50:22;100377.81;;;20.20;47.25
28079;BME280;15388;42.238;24.684;2022-10-16T10:52:59;100377.31;;;19.93;48.87
28079;BME280;15388;42.238;24.684;2022-10-16T10:55:33;100365.88;;;19.82;49.30
28079;BME280;15388;42.238;24.684;2022-10-16T11:00:42;100369.63;;;19.81;48.55
28079;BME280;15388;42.238;24.684;2022-10-16T11:03:33;100364.75;;;20.08;47.60
28079;BME280;15388;42.238;24.684;2022-10-16T11:08:32;100362.59;;;20.81;45.05
28079;BME280;15388;42.238;24.684;2022-10-16T11:11:00;100364.44;;;21.19;44.02
28079;BME280;15388;42.238;24.684;2022-10-16T11:13:34;100354.00;;;21.00;43.15
28079;BME280;15388;42.238;24.684;2022-10-16T11:16:05;100353.81;;;21.02;43.62
28079;BME280;15388;42.238;24.684;2022-10-16T11:18:41;100360.25;;;21.16;43.21
28079;BME280;15388;42.238;24.684;2022-10-16T11:21:10;100358.84;;;21.05;43.35
28079;BME280;15388;42.238;24.684;2022-10-16T11:26:04;100360.31;;;20.78;42.66
28079;BME280;15388;42.238;24.684;2022-10-16T11:28:35;100352.59;;;21.20;42.72
28079;BME280;15388;42.238;24.684;2022-10-16T11:34:25;100345.44;;;21.79;40.71
28079;BME280;15388;42.238;24.684;2022-10-16T11:39:27;100336.03;;;22.19;40.12
28079;BME280;15388;42.238;24.684;2022-10-16T11:42:13;100337.50;;;22.43;39.27
28079;BME280;15388;42.238;24.684;2022-10-16T11:49:32;100331.66;;;21.96;40.10
28079;BME280;15388;42.238;24.684;2022-10-16T11:57:15;100325.38;;;22.96;38.93
28079;BME280;15388;42.238;24.684;2022-10-16T11:59:44;100335.88;;;22.49;38.73
28079;BME280;15388;42.238;24.684;2022-10-16T12:04:45;100337.09;;;22.97;38.98
28079;BME280;15388;42.238;24.684;2022-10-16T12:07:17;100337.69;;;23.34;38.26
28079;BME280;15388;42.238;24.684;2022-10-16T12:09:44;100336.59;;;23.71;37.61
28079;BME280;15388;42.238;24.684;2022-10-16T12:12:25;100332.94;;;24.12;36.49
28079;BME280;15388;42.238;24.684;2022-10-16T12:17:36;100339.13;;;23.72;35.09
28079;BME280;15388;42.238;24.684;2022-10-16T12:22:37;100320.69;;;23.67;36.13
28079;BME280;15388;42.238;24.684;2022-10-16T12:25:18;100324.97;;;23.97;35.81
28079;BME280;15388;42.238;24.684;2022-10-16T12:27:44;100327.50;;;24.26;35.62
28079;BME280;15388;42.238;24.684;2022-10-16T12:30:14;100322.50;;;24.50;35.12
28079;BME280;15388;42.238;24.684;2022-10-16T12:32:45;100325.81;;;24.79;35.16
28079;BME280;15388;42.238;24.684;2022-10-16T12:35:25;100330.63;;;25.04;34.93
28079;BME280;15388;42.238;24.684;2022-10-16T12:37:52;100323.81;;;25.27;34.23
28079;BME280;15388;42.238;24.684;2022-10-16T12:42:49;100322.66;;;25.62;33.06
28079;BME280;15388;42.238;24.684;2022-10-16T12:45:31;100322.22;;;25.58;32.86
28079;BME280;15388;42.238;24.684;2022-10-16T12:47:57;100323.81;;;25.27;33.01
28079;BME280;15388;42.238;24.684;2022-10-16T12:50:24;100329.91;;;25.22;32.63
28079;BME280;15388;42.238;24.684;2022-10-16T12:52:50;100332.28;;;25.05;32.85
28079;BME280;15388;42.238;24.684;2022-10-16T12:55:16;100334.63;;;24.54;33.13
28079;BME280;15388;42.238;24.684;2022-10-16T13:00:50;100340.06;;;24.61;34.21
28079;BME280;15388;42.238;24.684;2022-10-16T13:06:05;100338.41;;;24.60;34.60
28079;BME280;15388;42.238;24.684;2022-10-16T13:08:48;100340.94;;;24.54;34.72
28079;BME280;15388;42.238;24.684;2022-10-16T13:11:43;100343.00;;;24.59;33.87
28079;BME280;15388;42.238;24.684;2022-10-16T13:27:15;100338.38;;;24.93;32.44
28079;BME280;15388;42.238;24.684;2022-10-16T13:29:45;100338.97;;;25.09;33.17
28079;BME280;15388;42.238;24.684;2022-10-16T13:32:17;100345.84;;;25.18;33.66
28079;BME280;15388;42.238;24.684;2022-10-16T13:34:46;100342.88;;;25.27;33.38
28079;BME280;15388;42.238;24.684;2022-10-16T13:37:18;100343.28;;;25.37;33.41
28079;BME280;15388;42.238;24.684;2022-10-16T13:39:43;100347.88;;;25.43;32.93
28079;BME280;15388;42.238;24.684;2022-10-16T13:44:35;100346.13;;;25.56;31.72
28079;BME280;15388;42.238;24.684;2022-10-16T13:47:02;100344.38;;;25.16;32.70
28079;BME280;15388;42.238;24.684;2022-10-16T13:49:27;100344.63;;;25.14;33.25
28079;BME280;15388;42.238;24.684;2022-10-16T13:51:57;100334.53;;;25.22;33.25
28079;BME280;15388;42.238;24.684;2022-10-16T13:54:23;100342.50;;;25.16;33.53
28079;BME280;15388;42.238;24.684;2022-10-16T13:56:48;100344.56;;;25.28;33.24
28079;BME280;15388;42.238;24.684;2022-10-16T14:02:31;100351.72;;;25.15;33.00
28079;BME280;15388;42.238;24.684;2022-10-16T14:05:00;100341.09;;;24.93;33.14
28079;BME280;15388;42.238;24.684;2022-10-16T14:07:26;100349.69;;;24.63;33.75
28079;BME280;15388;42.238;24.684;2022-10-16T14:09:53;100348.00;;;24.76;33.93
28079;BME280;15388;42.238;24.684;2022-10-16T14:12:19;100347.59;;;24.79;33.38
28079;BME280;15388;42.238;24.684;2022-10-16T14:14:51;100344.47;;;24.68;33.74
28079;BME280;15388;42.238;24.684;2022-10-16T14:17:24;100346.94;;;24.77;33.42
28079;BME280;15388;42.238;24.684;2022-10-16T14:19:51;100354.69;;;24.66;33.45
28079;BME280;15388;42.238;24.684;2022-10-16T14:22:32;100352.63;;;24.48;33.69
28079;BME280;15388;42.238;24.684;2022-10-16T14:24:57;100351.78;;;24.41;33.99
28079;BME280;15388;42.238;24.684;2022-10-16T14:27:30;100356.81;;;24.37;34.18
28079;BME280;15388;42.238;24.684;2022-10-16T14:32:33;100356.81;;;24.51;34.21
28079;BME280;15388;42.238;24.684;2022-10-16T14:34:58;100357.44;;;24.53;34.09
28079;BME280;15388;42.238;24.684;2022-10-16T14:37:25;100353.25;;;24.43;34.49
28079;BME280;15388;42.238;24.684;2022-10-16T14:39:51;100353.88;;;24.32;34.51
28079;BME280;15388;42.238;24.684;2022-10-16T14:42:18;100350.47;;;24.03;34.18
28079;BME280;15388;42.238;24.684;2022-10-16T14:44:44;100353.13;;;23.76;34.98
28079;BME280;15388;42.238;24.684;2022-10-16T14:47:13;100351.38;;;23.48;35.27
28079;BME280;15388;42.238;24.684;2022-10-16T14:49:41;100353.84;;;23.43;35.73